createdAt,value
2024-05-09T00:00:52.265Z,7.26
2024-05-09T00:03:22.675Z,7.30
2024-05-09T00:05:53.083Z,7.02
2024-05-09T00:08:26.203Z,7.38
2024-05-09T00:10:58.440Z,7.13
2024-05-09T00:13:28.962Z,7.39
2024-05-09T00:15:59.539Z,7.33
2024-05-09T00:18:29.843Z,6.97
2024-05-09T00:21:00.307Z,7.23
2024-05-09T00:23:33.407Z,7.45
2024-05-09T00:26:03.908Z,7.15
2024-05-09T00:28:34.252Z,7.31
2024-05-09T00:31:05.782Z,7.46
2024-05-09T00:33:36.175Z,7.08
2024-05-09T00:36:07.050Z,7.36
2024-05-09T00:38:40.022Z,7.66
2024-05-09T00:41:10.311Z,7.57
2024-05-09T00:43:40.846Z,7.66
2024-05-09T00:46:12.992Z,7.67
2024-05-09T00:48:43.585Z,7.23
2024-05-09T00:51:14.373Z,7.44
2024-05-09T00:53:47.681Z,7.44
2024-05-09T00:56:21.121Z,7.37
2024-05-09T00:58:52.290Z,7.47
2024-05-09T01:01:24.048Z,7.40
2024-05-09T01:03:54.838Z,7.06
2024-05-09T01:06:25.303Z,7.12
2024-05-09T01:08:58.294Z,7.16
2024-05-09T01:11:36.476Z,7.43
2024-05-09T01:14:07.254Z,7.31
2024-05-09T01:16:37.875Z,7.35
2024-05-09T01:19:13.842Z,7.42
2024-05-09T01:21:47.430Z,7.27
2024-05-09T01:24:20.361Z,7.10
2024-05-09T01:26:50.790Z,7.22
2024-05-09T01:29:21.322Z,7.09
2024-05-09T01:31:52.395Z,6.97
2024-05-09T01:34:22.995Z,7.14
2024-05-09T01:36:53.279Z,6.92
2024-05-09T01:39:26.449Z,7.00
2024-05-09T01:41:56.860Z,7.07
2024-05-09T01:44:27.380Z,7.34
2024-05-09T01:46:58.461Z,6.78
2024-05-09T01:49:28.840Z,7.34
2024-05-09T01:51:59.396Z,7.35
2024-05-09T01:54:32.350Z,7.37
2024-05-09T01:57:02.644Z,7.07
2024-05-09T01:59:33.235Z,7.32
2024-05-09T02:02:03.834Z,7.44
2024-05-09T02:04:34.705Z,7.43
2024-05-09T02:07:05.170Z,6.88
2024-05-09T02:09:38.151Z,7.36
2024-05-09T02:12:09.014Z,7.41
2024-05-09T02:14:39.682Z,7.43
2024-05-09T02:17:10.442Z,7.30
2024-05-09T02:19:41.027Z,7.27
2024-05-09T02:22:11.418Z,7.09
2024-05-09T02:24:44.462Z,7.15
2024-05-09T02:27:14.743Z,7.12
2024-05-09T02:29:47.479Z,7.43
2024-05-09T02:32:17.901Z,7.16
2024-05-09T02:34:48.386Z,7.31
2024-05-09T02:37:18.822Z,6.90
2024-05-09T02:39:49.211Z,7.32
2024-05-09T02:42:19.603Z,6.89
2024-05-09T02:44:47.393Z,7.28
2024-05-09T02:47:18.100Z,7.40
2024-05-09T02:49:45.930Z,7.08
2024-05-09T02:52:19.653Z,7.36
2024-05-09T02:54:49.994Z,7.12
2024-05-09T02:57:20.284Z,7.11
2024-05-09T02:59:48.219Z,7.29
2024-05-09T03:02:18.758Z,7.32
2024-05-09T03:04:46.799Z,7.15
2024-05-09T03:07:19.743Z,6.85
2024-05-09T03:09:50.661Z,7.01
2024-05-09T03:12:21.064Z,7.28
2024-05-09T03:14:50.617Z,7.26
2024-05-09T03:17:23.615Z,7.04
2024-05-09T03:19:51.511Z,7.35
2024-05-09T03:22:21.920Z,6.98
2024-05-09T03:24:52.347Z,7.40
2024-05-09T03:27:24.863Z,7.37
2024-05-09T03:29:52.698Z,7.63
2024-05-09T03:32:23.005Z,7.68
2024-05-09T03:34:50.772Z,7.31
2024-05-09T03:37:20.996Z,7.72
2024-05-09T03:39:57.886Z,7.87
2024-05-09T03:42:30.959Z,7.52
2024-05-09T03:45:01.234Z,7.65
2024-05-09T03:47:29.287Z,8.13
2024-05-09T03:49:59.812Z,7.73
2024-05-09T03:52:27.587Z,7.91
2024-05-09T03:55:00.672Z,8.15
2024-05-09T03:57:31.286Z,8.22
2024-05-09T04:00:02.796Z,8.29
2024-05-09T04:02:32.244Z,8.08
2024-05-09T04:05:02.579Z,8.50
2024-05-09T04:07:30.355Z,8.60
2024-05-09T04:10:08.922Z,8.91
2024-05-09T04:12:36.904Z,8.95
2024-05-09T04:15:11.238Z,8.80
2024-05-09T04:17:41.026Z,9.31
2024-05-09T04:20:24.133Z,9.51
2024-05-09T04:23:04.903Z,9.47
2024-05-09T04:25:35.398Z,9.82
2024-05-09T04:28:06.069Z,10.31
2024-05-09T04:30:38.520Z,10.56
2024-05-09T04:33:13.523Z,10.55
2024-05-09T04:35:43.548Z,11.13
2024-05-09T04:38:17.981Z,11.41
2024-05-09T04:40:51.156Z,11.62
2024-05-09T04:43:21.787Z,12.00
2024-05-09T04:45:50.788Z,12.40
2024-05-09T04:48:21.271Z,12.45
2024-05-09T04:50:51.801Z,13.23
2024-05-09T04:53:22.185Z,15.18
2024-05-09T04:55:52.649Z,16.41
2024-05-09T04:58:22.999Z,17.35
2024-05-09T05:00:51.944Z,17.95
2024-05-09T05:03:23.067Z,18.02
2024-05-09T05:05:50.978Z,17.97
2024-05-09T05:08:24.707Z,18.13
2024-05-09T05:10:56.362Z,18.23
2024-05-09T05:13:26.843Z,17.87
2024-05-09T05:15:57.509Z,17.98
2024-05-09T05:18:29.763Z,17.99
2024-05-09T05:20:57.985Z,18.09
2024-05-09T05:23:28.868Z,18.76
2024-05-09T05:26:00.947Z,18.27
2024-05-09T05:28:32.248Z,17.97
2024-05-09T05:31:00.260Z,18.17
2024-05-09T05:33:30.645Z,19.33
2024-05-09T05:36:04.269Z,20.09
2024-05-09T05:38:37.946Z,20.81
2024-05-09T05:41:13.512Z,20.98
2024-05-09T05:43:44.164Z,21.45
2024-05-09T05:46:12.996Z,21.82
2024-05-09T05:48:43.340Z,21.85
2024-05-09T05:51:12.450Z,22.11
2024-05-09T05:53:43.280Z,23.50
2024-05-09T05:56:13.718Z,24.59
2024-05-09T05:58:44.696Z,25.36
2024-05-09T06:01:13.056Z,25.18
2024-05-09T06:03:43.563Z,24.61
2024-05-09T06:06:14.494Z,23.33
2024-05-09T06:08:47.546Z,22.57
2024-05-09T06:11:19.785Z,22.22
2024-05-09T06:13:52.659Z,22.38
2024-05-09T06:16:20.736Z,21.80
2024-05-09T06:18:51.556Z,21.86
2024-05-09T06:21:19.620Z,21.27
2024-05-09T06:23:50.380Z,21.52
2024-05-09T06:26:20.728Z,22.23
2024-05-09T06:28:50.901Z,21.45
2024-05-09T06:31:18.594Z,21.82
2024-05-09T06:33:49.056Z,22.29
2024-05-09T06:36:16.830Z,19.80
2024-05-09T06:38:47.131Z,18.11
2024-05-09T06:41:14.942Z,18.80
2024-05-09T06:43:47.852Z,19.48
2024-05-09T06:46:15.519Z,21.04
2024-05-09T06:48:48.233Z,23.03
2024-05-09T06:51:16.072Z,21.76
2024-05-09T06:53:46.286Z,21.98
2024-05-09T06:56:14.643Z,21.86
2024-05-09T06:58:47.510Z,22.62
2024-05-09T07:01:15.285Z,24.08
2024-05-09T07:03:45.688Z,24.48
2024-05-09T07:06:13.537Z,24.04
2024-05-09T07:08:44.007Z,23.64
2024-05-09T07:11:12.002Z,24.69
2024-05-09T07:13:43.500Z,22.04
2024-05-09T07:16:13.789Z,23.01
2024-05-09T07:18:44.300Z,23.55
2024-05-09T07:21:12.895Z,22.38
2024-05-09T07:23:45.422Z,21.15
2024-05-09T07:26:14.639Z,21.55
2024-05-09T07:28:45.399Z,20.41
2024-05-09T07:31:17.894Z,22.85
2024-05-09T07:33:48.823Z,24.73
2024-05-09T07:36:20.531Z,25.12
2024-05-09T07:38:53.142Z,21.27
2024-05-09T07:41:20.986Z,22.40
2024-05-09T07:43:53.215Z,22.27
2024-05-09T07:47:36.818Z,22.92
2024-05-09T07:53:20.425Z,23.56
2024-05-09T07:54:40.240Z,23.62
2024-05-09T07:57:11.208Z,26.38
2024-05-09T07:59:42.608Z,25.30
2024-05-09T08:02:12.934Z,22.46
2024-05-09T08:04:43.520Z,22.33
2024-05-09T08:07:11.445Z,21.30
2024-05-09T08:09:41.911Z,19.87
2024-05-09T08:12:09.896Z,20.59
2024-05-09T08:14:41.920Z,20.30
2024-05-09T08:17:10.860Z,20.37
2024-05-09T08:19:43.931Z,20.11
2024-05-09T08:22:14.681Z,19.28
2024-05-09T08:24:42.830Z,19.90
2024-05-09T08:27:13.061Z,20.84
2024-05-09T08:29:40.791Z,20.90
2024-05-09T08:32:14.736Z,21.96
2024-05-09T08:34:49.510Z,22.02
2024-05-09T08:37:22.373Z,23.32
2024-05-09T08:39:55.222Z,24.72
2024-05-09T08:42:24.047Z,25.15
2024-05-09T08:44:55.467Z,26.82
2024-05-09T08:47:23.212Z,28.65
2024-05-09T08:49:58.792Z,27.54
2024-05-09T08:52:26.818Z,25.59
2024-05-09T08:54:57.451Z,26.95
2024-05-09T08:57:26.659Z,30.07
2024-05-09T08:59:59.024Z,30.51
2024-05-09T09:02:27.306Z,31.59
2024-05-09T09:05:05.009Z,31.49
2024-05-09T09:07:33.716Z,32.53
2024-05-09T09:10:08.564Z,31.62
2024-05-09T09:12:36.895Z,30.94
2024-05-09T09:15:07.523Z,31.21
2024-05-09T09:17:36.490Z,31.96
2024-05-09T09:20:14.417Z,32.15
2024-05-09T09:22:46.729Z,31.98
2024-05-09T09:25:20.196Z,33.29
2024-05-09T09:27:48.138Z,33.02
2024-05-09T09:30:31.671Z,30.15
2024-05-09T09:33:05.090Z,32.40
2024-05-09T09:35:38.922Z,33.06
2024-05-09T09:38:08.699Z,32.70
2024-05-09T09:40:44.808Z,33.14
2024-05-09T09:43:19.892Z,32.08
2024-05-09T09:45:58.673Z,31.47
2024-05-09T09:48:30.021Z,31.57
2024-05-09T09:51:03.414Z,30.71
2024-05-09T09:53:32.392Z,31.52
2024-05-09T09:56:03.689Z,29.52
2024-05-09T09:58:33.349Z,28.68
2024-05-09T10:01:03.742Z,30.97
2024-05-09T10:03:31.975Z,32.31
2024-05-09T10:06:05.267Z,32.85
2024-05-09T10:08:33.121Z,33.28
2024-05-09T10:11:07.134Z,29.75
2024-05-09T10:13:35.351Z,28.59
2024-05-09T10:16:12.369Z,30.74
2024-05-09T10:18:41.682Z,28.21
2024-05-09T10:21:21.664Z,28.78
2024-05-09T10:23:59.842Z,29.53
2024-05-09T10:26:34.939Z,29.53
2024-05-09T10:29:11.670Z,29.80
2024-05-09T10:31:44.336Z,31.01
2024-05-09T10:34:17.866Z,32.46
2024-05-09T10:36:55.377Z,31.58
2024-05-09T10:39:24.957Z,33.20
2024-05-09T10:41:55.411Z,34.07
2024-05-09T10:44:23.122Z,34.36
2024-05-09T10:46:54.912Z,34.50
2024-05-09T10:49:25.871Z,34.55
2024-05-09T10:51:58.989Z,35.16
2024-05-09T10:54:35.970Z,34.47
2024-05-09T10:57:06.394Z,32.27
2024-05-09T10:59:34.801Z,33.70
2024-05-09T11:02:07.904Z,34.51
2024-05-09T11:04:37.018Z,35.52
2024-05-09T11:07:11.967Z,35.75
2024-05-09T11:09:40.345Z,35.74
2024-05-09T11:12:11.252Z,36.24
2024-05-09T11:14:39.093Z,32.91
2024-05-09T11:17:10.878Z,33.40
2024-05-09T11:19:40.184Z,33.56
2024-05-09T11:22:13.515Z,35.04
2024-05-09T11:24:41.625Z,35.37
2024-05-09T11:27:11.962Z,34.02
2024-05-09T11:29:41.302Z,34.61
2024-05-09T11:32:13.901Z,34.94
2024-05-09T11:34:42.313Z,36.28
2024-05-09T11:37:15.282Z,35.74
2024-05-09T11:39:48.438Z,35.54
2024-05-09T11:42:20.869Z,34.15
2024-05-09T11:44:48.470Z,34.73
2024-05-09T11:47:18.748Z,35.24
2024-05-09T11:49:46.414Z,32.55
2024-05-09T11:52:19.701Z,33.17
2024-05-09T11:54:47.358Z,31.19
2024-05-09T11:57:17.732Z,34.53
2024-05-09T11:59:45.416Z,31.07
2024-05-09T12:02:15.611Z,29.80
2024-05-09T12:04:43.336Z,30.16
2024-05-09T12:07:13.760Z,31.47
2024-05-09T12:09:44.058Z,34.28
2024-05-09T12:12:15.046Z,33.80
2024-05-09T12:14:43.329Z,35.38
2024-05-09T12:17:13.499Z,37.31
2024-05-09T12:19:41.182Z,36.70
2024-05-09T12:22:11.476Z,32.46
2024-05-09T12:24:39.250Z,32.96
2024-05-09T12:27:12.272Z,31.00
2024-05-09T12:29:39.995Z,31.13
2024-05-09T12:32:10.579Z,28.51
2024-05-09T12:34:38.321Z,30.21
2024-05-09T12:37:08.534Z,29.33
2024-05-09T12:39:36.072Z,27.59
2024-05-09T12:42:06.515Z,26.48
2024-05-09T12:44:36.658Z,24.84
2024-05-09T12:47:07.058Z,26.57
2024-05-09T12:49:35.013Z,29.51
2024-05-09T12:52:05.226Z,31.48
2024-05-09T12:54:33.750Z,27.83
2024-05-09T12:57:03.934Z,28.14
2024-05-09T12:59:31.402Z,26.05
2024-05-09T13:02:04.231Z,25.94
2024-05-09T13:04:32.081Z,27.70
2024-05-09T13:07:04.302Z,31.56
2024-05-09T13:09:33.485Z,32.90
2024-05-09T13:12:03.587Z,35.05
2024-05-09T13:14:31.133Z,33.56
2024-05-09T13:17:03.807Z,33.54
2024-05-09T13:19:31.614Z,34.50
2024-05-09T13:22:01.756Z,32.42
2024-05-09T13:24:29.303Z,26.41
2024-05-09T13:26:59.378Z,24.95
2024-05-09T13:29:27.286Z,23.92
2024-05-09T13:31:57.328Z,22.72
2024-05-09T13:34:30.240Z,22.35
2024-05-09T13:36:58.003Z,21.81
2024-05-09T13:39:28.166Z,20.94
2024-05-09T13:41:55.738Z,21.05
2024-05-09T13:44:25.758Z,20.98
2024-05-09T13:46:53.555Z,21.46
2024-05-09T13:49:23.853Z,22.14
2024-05-09T13:51:54.185Z,22.39
2024-05-09T13:54:24.308Z,22.29
2024-05-09T13:56:52.381Z,21.45
2024-05-09T13:59:22.602Z,20.93
2024-05-09T14:01:50.259Z,20.61
2024-05-09T14:04:20.665Z,21.68
2024-05-09T14:06:48.767Z,25.18
2024-05-09T14:09:21.407Z,27.71
2024-05-09T14:11:49.031Z,27.55
2024-05-09T14:14:19.326Z,24.05
2024-05-09T14:16:47.168Z,22.41
2024-05-09T14:19:17.687Z,22.08
2024-05-09T14:21:45.359Z,24.15
2024-05-09T14:24:16.174Z,26.13
2024-05-09T14:26:46.434Z,24.11
2024-05-09T14:29:16.637Z,22.69
2024-05-09T14:31:44.325Z,22.02
2024-05-09T14:34:14.873Z,21.76
2024-05-09T14:36:42.715Z,21.46
2024-05-09T14:39:12.854Z,20.81
2024-05-09T14:41:40.941Z,20.47
2024-05-09T14:44:14.269Z,21.44
2024-05-09T14:46:41.987Z,21.36
2024-05-09T14:49:12.548Z,21.17
2024-05-09T14:51:41.041Z,21.41
2024-05-09T14:54:11.285Z,21.24
2024-05-09T14:56:38.877Z,20.77
2024-05-09T14:59:09.368Z,20.07
2024-05-09T15:01:39.816Z,19.85
2024-05-09T15:04:10.172Z,19.76
2024-05-09T15:06:39.974Z,19.27
2024-05-09T15:09:10.324Z,19.83
2024-05-09T15:11:37.931Z,20.63
2024-05-09T15:14:08.934Z,21.80
2024-05-09T15:16:39.187Z,21.57
2024-05-09T15:19:09.559Z,20.38
2024-05-09T15:21:37.372Z,19.43
2024-05-09T15:24:08.315Z,18.64
2024-05-09T15:26:36.496Z,18.50
2024-05-09T15:29:06.660Z,18.67
2024-05-09T15:31:34.436Z,18.53
2024-05-09T15:34:08.434Z,18.48
2024-05-09T15:36:36.128Z,18.38
2024-05-09T15:39:06.310Z,18.47
2024-05-09T15:41:33.986Z,18.37
2024-05-09T15:44:04.110Z,18.11
2024-05-09T15:46:31.724Z,17.86
2024-05-09T15:49:02.075Z,17.88
2024-05-09T15:51:32.371Z,16.96
2024-05-09T15:54:02.488Z,17.36
2024-05-09T15:56:30.191Z,17.30
2024-05-09T15:59:00.681Z,17.07
2024-05-09T16:01:28.939Z,16.89
2024-05-09T16:03:59.242Z,16.84
2024-05-09T16:06:27.135Z,16.77
2024-05-09T16:08:59.957Z,16.65
2024-05-09T16:11:27.698Z,16.54
2024-05-09T16:13:58.013Z,16.02
2024-05-09T16:16:25.715Z,16.40
2024-05-09T16:18:55.868Z,16.29
2024-05-09T16:21:23.445Z,16.46
2024-05-09T16:23:53.517Z,16.74
2024-05-09T16:26:23.594Z,16.56
2024-05-09T16:28:53.943Z,16.55
2024-05-09T16:31:21.603Z,16.17
2024-05-09T16:33:51.871Z,16.51
2024-05-09T16:36:19.810Z,16.41
2024-05-09T16:38:49.897Z,16.12
2024-05-09T16:41:17.516Z,16.33
2024-05-09T16:43:50.196Z,16.16
2024-05-09T16:46:17.871Z,15.94
2024-05-09T16:48:48.396Z,15.70
2024-05-09T16:51:16.019Z,15.43
2024-05-09T16:53:46.059Z,15.57
2024-05-09T16:56:13.894Z,15.57
2024-05-09T16:58:43.986Z,15.45
2024-05-09T17:01:15.082Z,15.26
2024-05-09T17:03:45.693Z,15.25
2024-05-09T17:06:13.554Z,15.17
2024-05-09T17:08:43.935Z,15.31
2024-05-09T17:11:12.382Z,15.51
2024-05-09T17:13:45.247Z,15.57
2024-05-09T17:16:19.175Z,15.60
2024-05-09T17:18:50.578Z,15.50
2024-05-09T17:21:18.778Z,15.41
2024-05-09T17:23:51.208Z,15.43
2024-05-09T17:26:18.862Z,15.32
2024-05-09T17:28:49.140Z,15.16
2024-05-09T17:31:19.300Z,14.98
2024-05-09T17:33:49.727Z,14.94
2024-05-09T17:36:17.647Z,14.59
2024-05-09T17:38:47.932Z,14.67
2024-05-09T17:41:15.718Z,14.55
2024-05-09T17:43:47.044Z,14.30
2024-05-09T17:46:14.719Z,14.24
2024-05-09T17:48:47.490Z,14.05
2024-05-09T17:51:15.171Z,13.96
2024-05-09T17:53:45.278Z,13.95
2024-05-09T17:56:12.865Z,13.91
2024-05-09T17:58:43.114Z,13.76
2024-05-09T18:01:10.806Z,13.67
2024-05-09T18:03:42.025Z,13.47
2024-05-09T18:06:12.343Z,13.48
2024-05-09T18:08:42.578Z,13.19
2024-05-09T18:11:10.390Z,13.25
2024-05-09T18:13:40.703Z,13.11
2024-05-09T18:16:08.831Z,12.92
2024-05-09T18:18:39.222Z,12.90
2024-05-09T18:21:06.959Z,12.75
2024-05-09T18:23:40.040Z,12.66
2024-05-09T18:26:08.774Z,12.55
2024-05-09T18:28:39.047Z,12.44
2024-05-09T18:31:09.818Z,12.34
2024-05-09T18:33:40.281Z,12.25
2024-05-09T18:36:08.151Z,12.09
2024-05-09T18:38:42.081Z,12.02
2024-05-09T18:41:09.809Z,11.78
2024-05-09T18:43:45.055Z,11.77
2024-05-09T18:46:16.167Z,11.80
2024-05-09T18:48:46.581Z,11.68
2024-05-09T18:51:14.803Z,11.57
2024-05-09T18:53:47.515Z,11.54
2024-05-09T18:56:15.263Z,11.51
2024-05-09T18:58:45.557Z,11.45
2024-05-09T19:01:13.516Z,11.35
2024-05-09T19:03:44.060Z,11.11
2024-05-09T19:06:11.774Z,11.17
2024-05-09T19:08:42.009Z,11.12
2024-05-09T19:11:12.309Z,11.00
2024-05-09T19:13:42.576Z,11.01
2024-05-09T19:16:13.107Z,10.93
2024-05-09T19:18:43.549Z,10.93
2024-05-09T19:21:11.746Z,10.83
2024-05-09T19:23:47.216Z,10.83
2024-05-09T19:26:22.401Z,10.78
2024-05-09T19:28:53.052Z,10.78
2024-05-09T19:31:20.749Z,10.79
2024-05-09T19:33:51.862Z,10.58
2024-05-09T19:36:19.736Z,10.47
2024-05-09T19:38:51.654Z,10.61
2024-05-09T19:41:22.794Z,10.43
2024-05-09T19:43:52.997Z,10.54
2024-05-09T19:46:20.883Z,10.34
2024-05-09T19:48:51.470Z,10.22
2024-05-09T19:51:19.439Z,10.38
2024-05-09T19:53:50.712Z,10.19
2024-05-09T19:56:18.283Z,10.37
2024-05-09T19:58:51.039Z,10.22
2024-05-09T20:01:18.840Z,10.15
2024-05-09T20:03:49.446Z,10.21
2024-05-09T20:06:17.352Z,10.13
2024-05-09T20:08:47.477Z,10.16
2024-05-09T20:11:15.452Z,10.11
2024-05-09T20:13:45.552Z,10.00
2024-05-09T20:16:15.877Z,10.01
2024-05-09T20:18:46.152Z,9.97
2024-05-09T20:21:13.984Z,9.92
2024-05-09T20:23:46.958Z,9.92
2024-05-09T20:26:14.678Z,9.78
2024-05-09T20:28:46.270Z,9.77
2024-05-09T20:31:20.605Z,9.77
2024-05-09T20:33:51.057Z,9.68
2024-05-09T20:36:18.759Z,9.66
2024-05-09T20:38:48.962Z,9.55
2024-05-09T20:41:16.908Z,9.54
2024-05-09T20:43:47.132Z,9.45
2024-05-09T20:46:17.878Z,9.39
2024-05-09T20:48:48.389Z,9.48
2024-05-09T20:51:16.020Z,9.35
2024-05-09T20:53:46.061Z,9.33
2024-05-09T20:56:13.990Z,9.32
2024-05-09T20:58:44.358Z,9.13
2024-05-09T21:01:12.112Z,8.96
2024-05-09T21:03:47.524Z,9.27
2024-05-09T21:06:15.307Z,9.13
2024-05-09T21:08:45.502Z,9.06
2024-05-09T21:11:13.252Z,9.10
2024-05-09T21:13:43.490Z,9.04
2024-05-09T21:16:11.322Z,8.95
2024-05-09T21:18:41.716Z,8.98
2024-05-09T21:21:11.942Z,8.95
2024-05-09T21:23:42.138Z,8.92
2024-05-09T21:26:09.928Z,8.88
2024-05-09T21:28:42.855Z,8.82
2024-05-09T21:31:10.681Z,8.68
2024-05-09T21:33:41.052Z,8.67
2024-05-09T21:36:14.709Z,8.83
2024-05-09T21:38:43.123Z,8.82
2024-05-09T21:41:13.427Z,8.73
2024-05-09T21:43:41.010Z,8.64
2024-05-09T21:46:11.275Z,8.59
2024-05-09T21:48:39.403Z,8.74
2024-05-09T21:51:18.530Z,8.66
2024-05-09T21:53:46.196Z,8.89
2024-05-09T21:56:16.374Z,8.95
2024-05-09T21:58:44.159Z,8.98
2024-05-09T22:01:17.326Z,9.05
2024-05-09T22:03:45.196Z,9.02
2024-05-09T22:06:17.962Z,9.10
2024-05-09T22:08:45.646Z,9.21
2024-05-09T22:11:16.039Z,9.33
2024-05-09T22:13:43.794Z,9.33
2024-05-09T22:16:14.071Z,9.43
2024-05-09T22:18:42.060Z,9.37
2024-05-09T22:21:12.333Z,9.60
2024-05-09T22:23:42.528Z,9.59
2024-05-09T22:26:12.891Z,9.76
2024-05-09T22:28:40.922Z,9.52
2024-05-09T22:31:11.726Z,9.56
2024-05-09T22:33:39.588Z,9.56
2024-05-09T22:36:11.328Z,9.90
2024-05-09T22:38:41.667Z,9.92
2024-05-09T22:41:12.281Z,9.86
2024-05-09T22:43:40.051Z,10.00
2024-05-09T22:46:10.296Z,10.08
2024-05-09T22:48:38.448Z,10.04
2024-05-09T22:51:09.146Z,10.03
2024-05-09T22:53:36.784Z,10.13
2024-05-09T22:56:09.968Z,10.17
2024-05-09T22:58:37.817Z,10.18
2024-05-09T23:01:08.239Z,10.26
2024-05-09T23:03:39.371Z,10.30
2024-05-09T23:06:10.023Z,10.35
2024-05-09T23:08:37.667Z,10.42
2024-05-09T23:11:10.644Z,10.43
2024-05-09T23:13:38.259Z,10.36
2024-05-09T23:16:09.328Z,10.47
2024-05-09T23:18:37.201Z,10.51
2024-05-09T23:21:07.984Z,10.38
2024-05-09T23:23:35.618Z,10.56
2024-05-09T23:26:05.749Z,10.51
2024-05-09T23:28:36.075Z,10.55
2024-05-09T23:31:07.598Z,10.47
2024-05-09T23:33:35.629Z,10.55
2024-05-09T23:36:06.009Z,10.56
2024-05-09T23:38:33.636Z,10.48
2024-05-09T23:41:03.932Z,10.58
2024-05-09T23:43:31.771Z,10.56
2024-05-09T23:46:07.522Z,10.68
2024-05-09T23:48:35.321Z,10.58
2024-05-09T23:51:05.729Z,10.79
2024-05-09T23:53:33.366Z,10.82
2024-05-09T23:56:03.483Z,10.74
2024-05-09T23:58:31.561Z,10.94
